Mendota, IL

9:10 AM CST on January 16, 2017 (GMT -0600)
Welland and Angling Roads | | Change Station
Active Advisory: Winter Weather Advisory

Elev 833 ft 41.63 °N, 89.02 °W | Updated 21 seconds ago

Rain
Rain
32.4 °F
Feels Like 32 °F
N
1.6
Wind Variable Wind from East
Gusts 4.5 mph

Today
High -- | Low -- °F
--% Chance of Precip.
Yesterday
High -- | Low -- °F
Precip. -- in
Pressure 30.21 in
Visibility 1.2 miles
Clouds Overcast 300 ft
Windchill 32 °F
Dew Point 27 °F
Humidity 79%
Rainfall 0.09 in
Snow Depth Not available.
7:20 AM 4:53 PM
Waning Gibbous, 80% visible
METAR KVYS 161455Z AUTO 10006KT 1 1/4SM RA OVC003 43/43 A3021 RMK AO2 P0004 60008 T04320432
Pressure 30.21 in
Visibility 1.2 miles
Clouds Overcast 300 ft
Windchill 32 °F
Dew Point 27 °F
Humidity 79%
Rainfall 0.09 in
Snow Depth Not available.
7:20 AM 4:53 PM
Waning Gibbous, 80% visible
METAR KVYS 161455Z AUTO 10006KT 1 1/4SM RA OVC003 43/43 A3021 RMK AO2 P0004 60008 T04320432

Get Your Daily Forecast Email!

Thanks for signing up!

Be on the lookout for a verification email in your inbox.

You'll start receiving the daily forecast at 8 AM.

×

10-Day Weather Forecast

Almanac

Astronomy

Jan. 16, 2017 Rise Set
Actual Time
Civil Twilight
Nautical Twilight
Astronomical Twilight
Moon
Length of Visible Light
Length of Day
Tomorrow will be .
, % of the Moon is Illuminated

Today's Extremes

State Highs State Lows

Community

WunderPhotos

Upload Photos

1,962,540 photos uploaded!

WunderBlog® & News

Nearby

Air Quality

  Air Quality AQ Index Pollutant
Not available.

Snow Depth

Station Depth Elevation

Earthquake Activity

City Distance Mag. Time & Date
Minimum magnitude displayed is 2.5.

Coastal Water Temperatures

Place Temperature

Stations

Nearby Weather Stations

Station Location Temp. Windchill Dew Point Humidity Wind Precip. Elev Updated Type
                   

Watches & Warnings

Winter Weather Advisory
Issued: 3:27 AM CST Jan. 16, 2017 – National Weather Service

... Winter Weather Advisory remains in effect until noon CST
today...

* timing... freezing rain... mixed with sleet... will spread
northeast this morning. Precipitation should transition to all
rain by around noon.

* Main impact... ice accumulation up to a tenth of an inch mixed
with light sleet accumulations.

* Other impacts... accumulation of ice on untreated roads will make
travel hazardous during the morning commute.

Precautionary/preparedness actions...

A Winter Weather Advisory means that periods of snow... sleet... or
freezing rain will cause travel difficulties. Be prepared for
slippery roads and limited visibilities... and use caution while
driving.



Kmd